Time;durP1;ratioP1;P1;durP2;ratioP2;P2;SDS_P1;SDS_P2;PMS_P1;PMS_P2;Temp;Humidity;BMP_temperature;BMP_pressure;BME280_temperature;BME280_humidity;BME280_pressure;Samples;Min_cycle;Max_cycle;Signal;HPM_P1;HPM_P2
2023/01/26 00:01:52;;;;;;;99.97;46.03;;;-0.40;99.90;;;;;;5075083;28;20423;-59
2023/01/26 00:04:19;;;;;;;106.70;46.97;;;-0.40;99.90;;;;;;5081478;28;20517;-60
2023/01/26 00:06:46;;;;;;;108.85;49.28;;;-0.40;99.90;;;;;;5073339;28;20473;-59
2023/01/26 00:09:14;;;;;;;119.88;50.15;;;-0.70;99.90;;;;;;5077788;28;20420;-61
2023/01/26 00:11:42;;;;;;;118.70;49.25;;;-0.90;99.90;;;;;;5072477;28;20507;-61
2023/01/26 00:14:09;;;;;;;118.07;49.38;;;-1.10;99.90;;;;;;5067413;28;20421;-60
2023/01/26 00:16:35;;;;;;;116.60;47.75;;;-1.10;99.90;;;;;;5077535;28;20414;-61
2023/01/26 00:19:02;;;;;;;115.60;47.95;;;-1.10;99.90;;;;;;5075051;28;20406;-61
2023/01/26 00:21:29;;;;;;;121.20;48.27;;;-1.10;99.90;;;;;;5089982;28;20875;-61
2023/01/26 00:23:56;;;;;;;118.68;49.70;;;-1.20;99.90;;;;;;5058957;28;20419;-61
2023/01/26 00:26:24;;;;;;;124.07;49.92;;;-1.10;99.90;;;;;;5082568;28;20417;-60
2023/01/26 00:28:53;;;;;;;116.07;47.35;;;-1.40;99.90;;;;;;5075379;28;20419;-60
2023/01/26 00:31:22;;;;;;;114.90;45.90;;;-1.30;99.90;;;;;;5072364;28;20419;-60
2023/01/26 00:33:48;;;;;;;112.40;45.95;;;-1.20;99.90;;;;;;5083719;28;20413;-61
2023/01/26 00:36:15;;;;;;;118.15;47.60;;;-1.30;99.90;;;;;;5080667;28;20478;-61
2023/01/26 00:38:42;;;;;;;125.35;48.90;;;-1.40;99.90;;;;;;5082743;28;20415;-59
2023/01/26 00:42:05;;;;;;;124.43;47.30;;;-1.40;99.90;;;;;;5076713;28;20471;-61
2023/01/26 00:43:57;;;;;;;117.50;45.80;;;-1.50;99.90;;;;;;5081257;28;20467;-61
2023/01/26 00:46:24;;;;;;;122.23;44.97;;;-1.50;99.90;;;;;;5079282;28;20427;-61
2023/01/26 00:48:50;;;;;;;122.57;44.80;;;-1.60;99.90;;;;;;5083246;28;20785;-59
2023/01/26 00:51:17;;;;;;;119.13;44.90;;;-1.60;99.90;;;;;;5078341;28;20456;-61
2023/01/26 00:53:44;;;;;;;115.83;43.07;;;-1.70;99.90;;;;;;5059016;28;20810;-61
2023/01/26 00:56:10;;;;;;;107.10;42.15;;;-1.50;99.90;;;;;;5080083;28;20409;-60
2023/01/26 00:58:39;;;;;;;101.07;40.15;;;-1.40;99.90;;;;;;5081051;28;20471;-60
2023/01/26 01:01:07;;;;;;;112.07;43.28;;;-1.30;99.90;;;;;;5086009;28;20445;-61
2023/01/26 01:03:34;;;;;;;113.22;41.85;;;-1.40;99.90;;;;;;5064465;28;20491;-60
2023/01/26 01:06:01;;;;;;;121.20;42.78;;;-1.50;99.90;;;;;;5079629;28;20518;-61
2023/01/26 01:08:27;;;;;;;117.37;41.83;;;-1.60;99.90;;;;;;5071464;28;20465;-61
2023/01/26 01:11:03;;;;;;;109.05;40.63;;;-1.60;99.90;;;;;;5081534;28;21174;-60
2023/01/26 01:13:30;;;;;;;117.50;42.10;;;-1.40;99.90;;;;;;5064827;28;20439;-61
2023/01/26 01:15:56;;;;;;;114.93;43.13;;;-1.40;99.90;;;;;;5073539;28;20415;-61
2023/01/26 01:18:24;;;;;;;107.72;40.65;;;-1.20;99.90;;;;;;5073762;28;20424;-60
2023/01/26 01:20:51;;;;;;;120.05;43.03;;;-1.10;99.90;;;;;;5078238;28;20809;-61
2023/01/26 01:23:18;;;;;;;116.40;41.05;;;-1.20;99.90;;;;;;5078111;28;20423;-61
2023/01/26 01:25:45;;;;;;;126.40;43.35;;;-1.40;99.90;;;;;;5080722;28;20422;-61
2023/01/26 01:28:12;;;;;;;124.22;43.95;;;-1.40;99.90;;;;;;5079757;28;20453;-61
2023/01/26 01:30:39;;;;;;;124.47;43.72;;;-1.30;99.90;;;;;;5085907;28;20417;-61
2023/01/26 01:33:05;;;;;;;118.75;41.80;;;-1.20;99.90;;;;;;5073404;28;20414;-60
2023/01/26 01:35:34;;;;;;;123.95;43.47;;;-1.30;99.90;;;;;;5079883;28;20467;-61
2023/01/26 01:38:02;;;;;;;123.97;43.15;;;-1.30;99.90;;;;;;5083216;28;20755;-59
2023/01/26 01:40:28;;;;;;;118.00;42.50;;;-1.10;99.90;;;;;;5076078;28;20470;-61
2023/01/26 01:42:55;;;;;;;118.05;43.85;;;-1.10;99.90;;;;;;5072876;28;20415;-61
2023/01/26 01:45:39;;;;;;;117.05;42.28;;;-1.10;99.90;;;;;;5079541;28;20424;-60
2023/01/26 01:48:13;;;;;;;108.43;40.63;;;-1.00;99.90;;;;;;5070433;28;20423;-61
2023/01/26 01:50:42;;;;;;;105.53;40.85;;;-0.90;99.90;;;;;;5082562;28;20413;-61
2023/01/26 01:53:13;;;;;;;107.70;41.67;;;-0.80;99.90;;;;;;5070842;28;20466;-60
2023/01/26 01:55:40;;;;;;;99.32;40.35;;;-0.70;99.90;;;;;;5082285;28;20451;-60
2023/01/26 01:58:09;;;;;;;110.05;41.50;;;-0.60;99.90;;;;;;5080736;28;20405;-61
2023/01/26 02:00:35;;;;;;;108.05;40.78;;;-0.50;99.90;;;;;;5074310;28;20464;-61
2023/01/26 02:03:14;;;;;;;107.75;39.53;;;-0.70;99.90;;;;;;5077665;28;20415;-58
2023/01/26 02:05:51;;;;;;;105.78;40.88;;;-0.50;99.90;;;;;;5069859;28;20431;-61
2023/01/26 02:08:21;;;;;;;104.13;40.40;;;-0.40;99.90;;;;;;5058693;28;20467;-61
2023/01/26 02:10:51;;;;;;;99.00;40.05;;;-0.40;99.90;;;;;;5069217;28;20407;-60
2023/01/26 02:13:19;;;;;;;93.45;38.58;;;-0.30;99.90;;;;;;5071607;28;20412;-61
2023/01/26 02:15:46;;;;;;;112.53;41.53;;;-0.50;99.90;;;;;;5070758;28;20412;-61
2023/01/26 02:18:15;;;;;;;128.90;45.20;;;-0.80;99.90;;;;;;5076156;28;20422;-61
2023/01/26 02:20:47;;;;;;;126.50;43.67;;;-0.90;99.90;;;;;;5090196;28;20474;-58
2023/01/26 02:23:26;;;;;;;129.87;43.77;;;-0.90;99.90;;;;;;5082512;28;20413;-57
2023/01/26 02:26:05;;;;;;;122.88;41.80;;;-0.90;99.90;;;;;;5078583;28;20427;-61
2023/01/26 02:28:32;;;;;;;126.35;42.33;;;-0.70;99.90;;;;;;5081658;28;20465;-57
2023/01/26 02:31:00;;;;;;;116.80;42.38;;;-0.70;99.90;;;;;;5074021;28;20941;-59
2023/01/26 02:33:29;;;;;;;119.28;42.92;;;-0.50;99.90;;;;;;5074002;28;20420;-59
2023/01/26 02:35:55;;;;;;;116.10;43.03;;;-0.60;99.90;;;;;;5079636;28;20931;-59
2023/01/26 02:38:25;;;;;;;114.32;42.58;;;-0.40;99.90;;;;;;5075780;28;20423;-58
2023/01/26 02:40:55;;;;;;;108.60;42.45;;;-0.40;99.90;;;;;;5086568;28;20461;-59
2023/01/26 02:43:25;;;;;;;105.32;39.85;;;-0.30;99.90;;;;;;5085997;28;20424;-57
2023/01/26 02:45:52;;;;;;;109.95;41.53;;;-0.40;99.90;;;;;;5082729;28;20417;-58
2023/01/26 02:49:45;;;;;;;107.03;40.60;;;-0.30;99.90;;;;;;5078557;28;20425;-58
2023/01/26 02:51:06;;;;;;;102.60;38.97;;;-0.30;99.90;;;;;;5086483;28;20806;-58
2023/01/26 02:53:33;;;;;;;102.55;38.10;;;-0.30;99.90;;;;;;5056101;28;20413;-58
2023/01/26 02:55:58;;;;;;;104.53;39.92;;;-0.30;99.90;;;;;;5074064;28;20417;-58
2023/01/26 02:58:27;;;;;;;100.55;40.15;;;-0.20;99.90;;;;;;5080939;28;20417;-57
2023/01/26 03:00:53;;;;;;;102.80;38.22;;;-0.30;99.90;;;;;;5082590;28;20412;-57
2023/01/26 03:03:23;;;;;;;106.65;40.03;;;-0.20;99.90;;;;;;5075336;28;20477;-59
2023/01/26 03:05:50;;;;;;;104.45;39.83;;;-0.20;99.90;;;;;;5068638;28;20430;-58
2023/01/26 03:08:17;;;;;;;105.53;40.45;;;-0.10;99.90;;;;;;5084668;28;20491;-60
2023/01/26 03:10:46;;;;;;;116.55;42.00;;;-0.20;99.90;;;;;;5079724;28;20411;-58
2023/01/26 03:13:12;;;;;;;106.68;40.72;;;-0.20;99.90;;;;;;5076029;28;20973;-60
2023/01/26 03:15:46;;;;;;;110.00;41.20;;;-0.10;99.90;;;;;;5075483;28;20813;-60
2023/01/26 03:29:09;;;;;;;110.93;39.88;;;-0.10;99.90;;;;;;5072775;28;20403;-59
2023/01/26 03:31:37;;;;;;;111.25;40.72;;;-0.10;99.90;;;;;;5078438;28;20416;-59
2023/01/26 03:34:04;;;;;;;107.05;40.15;;;0.00;99.90;;;;;;5083731;28;20418;-59
2023/01/26 03:36:30;;;;;;;110.97;39.92;;;0.10;99.90;;;;;;5077505;28;20463;-59
2023/01/26 03:38:57;;;;;;;120.15;42.58;;;-0.20;99.90;;;;;;5080927;28;20415;-60
2023/01/26 03:57:51;;;;;;;127.65;44.83;;;-0.30;99.90;;;;;;5087183;28;20409;-59
2023/01/26 04:00:18;;;;;;;125.22;44.75;;;-0.10;99.90;;;;;;5093099;28;20410;-58
2023/01/26 04:08:23;;;;;;;125.53;44.97;;;-0.10;99.90;;;;;;5086733;28;20765;-58
2023/01/26 04:10:51;;;;;;;136.27;46.25;;;0.00;99.90;;;;;;5085080;28;20418;-59
2023/01/26 04:21:32;;;;;;;157.77;47.28;;;-0.50;99.90;;;;;;5068142;28;20479;-58
2023/01/26 04:24:00;;;;;;;137.55;48.00;;;-0.50;99.90;;;;;;5070176;28;20418;-58
2023/01/26 04:26:33;;;;;;;148.95;47.80;;;-0.30;99.90;;;;;;5081809;28;20425;-57
2023/01/26 04:29:01;;;;;;;140.68;46.33;;;-0.30;99.90;;;;;;5085605;28;20505;-59
2023/01/26 04:31:28;;;;;;;141.50;47.50;;;-0.30;99.90;;;;;;5083894;28;20521;-59
2023/01/26 04:33:56;;;;;;;129.30;45.15;;;-0.30;99.90;;;;;;5071434;28;20414;-60
2023/01/26 04:36:23;;;;;;;129.85;44.08;;;-0.10;99.90;;;;;;5077000;28;20452;-58
2023/01/26 04:38:49;;;;;;;126.15;43.28;;;0.00;99.90;;;;;;5079768;28;20410;-59
2023/01/26 04:41:16;;;;;;;129.90;46.20;;;0.00;99.90;;;;;;5080550;28;20411;-59
2023/01/26 04:43:43;;;;;;;117.45;42.70;;;0.00;99.90;;;;;;5075936;28;20418;-59
2023/01/26 04:46:11;;;;;;;119.47;42.78;;;0.10;99.90;;;;;;5082077;28;20827;-59
2023/01/26 04:48:38;;;;;;;114.55;43.00;;;0.10;99.90;;;;;;5073429;28;20419;-59
2023/01/26 04:51:11;;;;;;;127.85;44.53;;;0.10;99.90;;;;;;5074293;28;20423;-59
2023/01/26 04:53:38;;;;;;;127.18;42.95;;;0.00;99.90;;;;;;5072220;28;20783;-58
2023/01/26 04:56:07;;;;;;;124.88;43.25;;;0.00;99.90;;;;;;5089319;28;20410;-59
2023/01/26 04:58:34;;;;;;;124.88;43.13;;;0.00;99.90;;;;;;5076534;28;20422;-55
2023/01/26 05:01:01;;;;;;;130.73;44.50;;;-0.10;99.90;;;;;;5083740;28;20410;-60
2023/01/26 05:03:28;;;;;;;120.53;43.55;;;0.00;99.90;;;;;;5066373;28;20415;-59
2023/01/26 05:05:55;;;;;;;117.53;43.50;;;0.10;99.90;;;;;;5083933;28;20916;-59
2023/01/26 05:08:23;;;;;;;133.32;44.90;;;0.20;99.90;;;;;;5079943;28;20465;-58
2023/01/26 05:10:51;;;;;;;126.88;44.40;;;0.00;99.90;;;;;;5080167;28;20459;-60
2023/01/26 05:13:18;;;;;;;131.55;45.92;;;0.00;99.90;;;;;;5072701;28;20845;-59
2023/01/26 05:15:44;;;;;;;133.80;45.83;;;0.00;99.90;;;;;;5071366;28;20498;-59
2023/01/26 05:18:11;;;;;;;120.80;43.55;;;0.10;99.90;;;;;;5085502;28;20417;-59
2023/01/26 05:20:38;;;;;;;120.65;43.22;;;0.20;99.90;;;;;;5074644;28;20407;-60
2023/01/26 05:23:04;;;;;;;121.28;42.80;;;0.30;99.90;;;;;;5064456;28;20416;-60
2023/01/26 05:25:32;;;;;;;113.38;42.17;;;0.30;99.90;;;;;;5074550;28;20402;-59
2023/01/26 05:27:59;;;;;;;115.30;43.03;;;0.30;99.90;;;;;;5077890;28;20785;-59
2023/01/26 05:30:26;;;;;;;121.38;43.78;;;0.20;99.90;;;;;;5078285;28;20908;-59
2023/01/26 05:32:53;;;;;;;120.13;42.83;;;0.20;99.90;;;;;;5086750;28;20421;-61
2023/01/26 05:35:19;;;;;;;117.50;42.47;;;0.20;99.90;;;;;;5086295;28;20414;-59
2023/01/26 05:37:46;;;;;;;114.65;42.10;;;0.20;99.90;;;;;;5081116;28;20471;-59
2023/01/26 05:40:13;;;;;;;115.13;42.47;;;0.20;99.90;;;;;;5082529;28;20406;-59
2023/01/26 05:42:42;;;;;;;113.32;41.72;;;0.30;99.90;;;;;;5075154;28;20415;-59
2023/01/26 05:45:10;;;;;;;112.72;41.70;;;0.20;99.90;;;;;;5083848;28;20475;-59
2023/01/26 05:47:36;;;;;;;116.85;41.42;;;0.20;99.90;;;;;;5074032;28;20477;-59
2023/01/26 05:50:04;;;;;;;133.35;44.28;;;0.20;99.90;;;;;;5078210;28;20407;-59
2023/01/26 05:52:30;;;;;;;121.80;41.35;;;0.10;99.90;;;;;;5083153;28;20423;-59
2023/01/26 05:54:57;;;;;;;118.63;41.83;;;0.20;99.90;;;;;;5078676;28;20778;-64
2023/01/26 05:57:24;;;;;;;119.60;43.53;;;0.20;99.90;;;;;;5073315;28;20415;-63
2023/01/26 05:59:52;;;;;;;124.35;42.90;;;0.20;99.90;;;;;;5077428;28;20409;-63
2023/01/26 06:02:20;;;;;;;113.95;40.38;;;0.20;99.90;;;;;;5077818;28;20479;-63
2023/01/26 06:04:47;;;;;;;109.28;39.83;;;0.10;99.90;;;;;;5078358;28;20426;-64
2023/01/26 06:07:13;;;;;;;112.13;39.63;;;0.10;99.90;;;;;;5075739;28;20822;-63
2023/01/26 06:09:40;;;;;;;100.35;36.28;;;0.20;99.90;;;;;;5081178;28;20919;-63
2023/01/26 06:12:11;;;;;;;96.47;36.45;;;0.30;99.90;;;;;;5077200;28;20419;-63
2023/01/26 06:14:38;;;;;;;94.13;35.38;;;0.20;99.90;;;;;;5071625;28;20427;-59
2023/01/26 06:17:06;;;;;;;98.13;37.03;;;0.20;99.90;;;;;;5066340;28;20477;-56
2023/01/26 06:19:32;;;;;;;87.15;33.13;;;0.30;99.90;;;;;;5073858;28;20419;-61
2023/01/26 06:21:59;;;;;;;83.90;34.22;;;0.30;99.90;;;;;;5073225;28;20469;-63
2023/01/26 06:24:27;;;;;;;81.38;33.22;;;0.30;99.90;;;;;;5071318;28;20422;-62
2023/01/26 06:26:54;;;;;;;87.22;33.72;;;0.30;99.90;;;;;;5080341;28;20918;-61
2023/01/26 06:29:21;;;;;;;81.18;31.70;;;0.30;99.90;;;;;;5079702;28;20505;-61
2023/01/26 06:31:47;;;;;;;84.88;32.47;;;0.40;99.90;;;;;;5073654;28;20416;-61
2023/01/26 06:34:16;;;;;;;79.88;31.20;;;0.40;99.90;;;;;;5074057;28;20626;-62
2023/01/26 06:36:42;;;;;;;80.30;32.22;;;0.40;99.90;;;;;;5076927;28;20405;-62
2023/01/26 06:39:11;;;;;;;82.90;31.90;;;0.40;99.90;;;;;;5070121;28;20829;-61
2023/01/26 06:41:37;;;;;;;77.55;31.08;;;0.40;99.90;;;;;;5074082;28;21943;-62
2023/01/26 06:44:05;;;;;;;77.23;31.17;;;0.50;99.90;;;;;;5076093;28;20438;-60
2023/01/26 06:46:31;;;;;;;71.72;28.95;;;0.50;99.90;;;;;;5077848;28;21155;-66
2023/01/26 06:48:58;;;;;;;115.07;34.35;;;0.40;99.90;;;;;;5076956;28;20417;-67
2023/01/26 06:51:50;;;;;;;84.90;30.73;;;0.90;99.90;;;;;;5078839;28;20935;-68
2023/01/26 06:54:16;;;;;;;59.67;27.55;;;1.30;99.90;;;;;;5068493;28;20419;-60
2023/01/26 06:56:44;;;;;;;57.55;26.92;;;1.50;99.90;;;;;;5074653;28;20484;-60
2023/01/26 06:59:11;;;;;;;59.28;27.15;;;1.40;99.90;;;;;;5078803;28;20504;-62
2023/01/26 07:01:41;;;;;;;58.92;27.25;;;1.40;99.90;;;;;;5074750;28;20416;-60
2023/01/26 07:04:07;;;;;;;60.10;26.87;;;1.40;99.90;;;;;;5076987;28;20414;-60
2023/01/26 07:06:34;;;;;;;59.08;26.48;;;1.30;99.90;;;;;;5085202;28;20501;-61
2023/01/26 07:09:02;;;;;;;60.33;26.57;;;1.20;99.90;;;;;;5077340;28;20472;-59
2023/01/26 07:11:31;;;;;;;60.15;26.63;;;1.10;99.90;;;;;;5084813;28;20427;-58
2023/01/26 07:13:58;;;;;;;60.72;26.13;;;1.00;99.90;;;;;;5078659;28;20904;-61
2023/01/26 07:16:25;;;;;;;64.13;27.60;;;1.00;99.90;;;;;;5078503;28;20412;-58
2023/01/26 07:18:53;;;;;;;61.88;27.88;;;1.00;99.90;;;;;;5074387;28;20415;-60
2023/01/26 07:21:21;;;;;;;61.85;26.85;;;1.00;99.90;;;;;;5083405;28;20442;-58
2023/01/26 07:23:48;;;;;;;62.70;27.23;;;1.00;99.90;;;;;;5072924;28;20442;-58
2023/01/26 07:26:17;;;;;;;65.78;27.08;;;1.00;99.90;;;;;;5083715;28;20403;-56
2023/01/26 07:28:44;;;;;;;68.22;28.33;;;0.90;99.90;;;;;;5077079;28;20421;-58
2023/01/26 07:31:11;;;;;;;66.43;28.27;;;1.00;99.90;;;;;;5083658;28;20496;-58
2023/01/26 07:33:38;;;;;;;66.55;28.23;;;1.00;99.90;;;;;;5072601;28;20906;-59
2023/01/26 07:36:05;;;;;;;70.25;28.88;;;0.90;99.90;;;;;;5082422;28;20413;-61
2023/01/26 07:38:33;;;;;;;67.80;28.90;;;0.90;99.90;;;;;;5076037;28;20470;-60
2023/01/26 07:41:04;;;;;;;71.95;29.08;;;0.80;99.90;;;;;;5082086;28;20463;-61
2023/01/26 07:43:34;;;;;;;66.10;28.03;;;0.80;99.90;;;;;;5074312;28;20439;-59
2023/01/26 07:46:01;;;;;;;71.00;28.98;;;0.80;99.90;;;;;;5079096;28;20423;-60
2023/01/26 07:48:28;;;;;;;67.28;27.88;;;0.70;99.90;;;;;;5071853;28;20423;-59
2023/01/26 07:50:58;;;;;;;72.55;28.00;;;0.70;99.90;;;;;;5073896;28;20458;-64
2023/01/26 07:53:27;;;;;;;70.68;29.52;;;0.60;99.90;;;;;;5073652;28;20494;-57
2023/01/26 07:55:55;;;;;;;69.97;29.17;;;0.70;99.90;;;;;;5076353;28;20414;-60
2023/01/26 07:58:22;;;;;;;68.70;28.58;;;0.70;99.90;;;;;;5079625;28;20771;-58
2023/01/26 08:00:50;;;;;;;70.03;28.02;;;0.70;99.90;;;;;;5084813;28;20465;-59
2023/01/26 08:03:17;;;;;;;68.97;29.00;;;0.70;99.90;;;;;;5082648;28;20434;-60
2023/01/26 08:05:44;;;;;;;77.60;28.60;;;0.70;99.90;;;;;;5079829;28;20411;-59
2023/01/26 08:08:11;;;;;;;72.82;29.48;;;0.60;99.90;;;;;;5081188;28;20433;-60
2023/01/26 08:10:38;;;;;;;74.38;29.63;;;0.70;99.90;;;;;;5078675;28;20416;-59
2023/01/26 08:13:04;;;;;;;67.73;27.77;;;0.60;99.90;;;;;;5083506;28;20469;-59
2023/01/26 08:15:31;;;;;;;78.20;30.65;;;0.60;99.90;;;;;;5079101;28;20437;-57
2023/01/26 08:18:02;;;;;;;72.37;28.70;;;0.60;99.90;;;;;;5078590;28;20442;-67
2023/01/26 08:20:29;;;;;;;71.65;27.88;;;0.70;99.90;;;;;;5079230;28;20468;-62
2023/01/26 08:22:56;;;;;;;73.63;28.67;;;0.70;99.90;;;;;;5082608;28;20414;-60
2023/01/26 08:25:22;;;;;;;76.50;29.70;;;0.50;99.90;;;;;;5081928;28;20889;-61
2023/01/26 08:27:49;;;;;;;67.65;27.95;;;0.60;99.90;;;;;;5072571;28;20430;-58
2023/01/26 08:30:17;;;;;;;71.55;28.00;;;0.60;99.90;;;;;;5070897;28;20484;-61
2023/01/26 08:32:43;;;;;;;65.93;27.38;;;0.70;99.90;;;;;;5071702;28;20483;-64
2023/01/26 08:35:11;;;;;;;73.88;29.20;;;0.70;99.90;;;;;;5071113;28;20468;-63
2023/01/26 08:37:38;;;;;;;83.32;30.05;;;0.50;99.90;;;;;;5075255;28;20781;-63
2023/01/26 08:40:06;;;;;;;75.63;29.48;;;0.40;99.90;;;;;;5082540;28;20402;-66
2023/01/26 08:42:33;;;;;;;73.32;30.55;;;0.50;99.90;;;;;;5075619;28;20441;-66
2023/01/26 08:45:00;;;;;;;73.10;29.65;;;0.60;99.90;;;;;;5075925;28;20418;-67
2023/01/26 08:47:26;;;;;;;73.15;29.27;;;0.70;99.90;;;;;;5070928;28;20431;-63
2023/01/26 08:49:53;;;;;;;74.68;30.02;;;0.80;99.90;;;;;;5079938;28;20494;-61
2023/01/26 08:52:21;;;;;;;76.28;30.77;;;0.70;99.90;;;;;;5077798;28;20415;-58
2023/01/26 08:54:48;;;;;;;74.22;30.17;;;0.80;99.90;;;;;;5079879;28;20443;-60
2023/01/26 08:57:15;;;;;;;71.82;31.25;;;0.80;99.90;;;;;;5073530;28;21101;-58
2023/01/26 08:59:41;;;;;;;74.22;30.63;;;0.90;99.90;;;;;;5072178;28;20513;-63
2023/01/26 09:02:09;;;;;;;72.90;30.58;;;0.90;99.90;;;;;;5072188;28;20425;-63
2023/01/26 09:04:35;;;;;;;74.10;30.77;;;1.00;99.90;;;;;;5075932;28;20423;-62
2023/01/26 09:07:02;;;;;;;77.30;31.17;;;0.90;99.90;;;;;;5074476;28;20425;-63
2023/01/26 09:09:30;;;;;;;78.70;32.27;;;1.00;99.90;;;;;;5074457;28;20445;-63
2023/01/26 09:11:59;;;;;;;74.95;31.35;;;0.90;99.90;;;;;;5073579;28;21311;-63
2023/01/26 09:14:26;;;;;;;77.43;32.25;;;1.00;99.90;;;;;;5077047;28;20440;-62
2023/01/26 09:16:53;;;;;;;79.03;32.28;;;1.00;99.90;;;;;;5076486;28;20546;-63
2023/01/26 09:19:20;;;;;;;76.17;31.87;;;1.50;99.90;;;;;;5077025;28;20442;-64
2023/01/26 09:21:46;;;;;;;74.05;31.92;;;1.30;99.90;;;;;;5071694;28;20423;-62
2023/01/26 09:24:13;;;;;;;75.93;32.10;;;1.40;99.90;;;;;;5073432;28;20790;-60
2023/01/26 09:26:41;;;;;;;71.25;30.77;;;1.40;99.90;;;;;;5070468;28;20426;-62
2023/01/26 09:29:08;;;;;;;73.05;30.95;;;1.40;99.90;;;;;;5073831;28;20418;-62
2023/01/26 09:31:34;;;;;;;81.70;32.25;;;1.40;99.90;;;;;;5079679;28;20497;-61
2023/01/26 09:34:01;;;;;;;85.68;33.05;;;1.30;99.90;;;;;;5075538;28;20815;-63
2023/01/26 09:36:28;;;;;;;87.72;34.38;;;1.10;99.90;;;;;;5072070;28;20427;-65
2023/01/26 09:38:56;;;;;;;77.80;32.85;;;1.20;99.90;;;;;;5071398;28;20416;-63
2023/01/26 09:41:43;;;;;;;73.63;32.45;;;1.30;99.90;;;;;;5081955;28;20472;-62
2023/01/26 09:44:16;;;;;;;73.13;32.58;;;1.30;99.90;;;;;;5075154;28;20414;-62
2023/01/26 09:46:54;;;;;;;76.40;32.20;;;1.30;99.90;;;;;;5077438;28;20499;-62
2023/01/26 09:49:26;;;;;;;80.43;32.05;;;1.30;99.90;;;;;;5076329;28;20463;-64
2023/01/26 09:51:58;;;;;;;72.50;29.60;;;1.10;99.90;;;;;;5069215;28;20415;-63
2023/01/26 09:54:30;;;;;;;80.20;31.48;;;1.20;99.90;;;;;;5068171;28;20830;-62
2023/01/26 09:56:59;;;;;;;78.72;31.13;;;1.30;99.90;;;;;;5073661;28;20425;-60
2023/01/26 09:59:35;;;;;;;72.07;30.25;;;1.20;99.90;;;;;;5068303;28;20423;-62
2023/01/26 10:02:14;;;;;;;70.22;29.30;;;1.40;99.90;;;;;;5075034;28;20458;-62
2023/01/26 10:04:45;;;;;;;68.10;29.08;;;1.50;99.90;;;;;;5077464;28;20505;-61
2023/01/26 10:07:13;;;;;;;65.20;28.95;;;1.50;99.90;;;;;;5069961;28;20415;-60
2023/01/26 10:09:44;;;;;;;69.47;29.63;;;1.50;99.90;;;;;;5074997;28;20422;-61
2023/01/26 10:12:19;;;;;;;69.87;29.70;;;1.40;99.90;;;;;;5080800;28;20414;-61
2023/01/26 10:14:52;;;;;;;73.68;29.45;;;1.50;99.90;;;;;;5069261;28;20415;-61
2023/01/26 10:17:25;;;;;;;65.60;29.17;;;1.50;99.90;;;;;;5077305;28;20774;-61
2023/01/26 10:19:57;;;;;;;65.32;28.30;;;1.60;99.90;;;;;;5076576;28;20900;-61
2023/01/26 10:22:31;;;;;;;61.60;27.27;;;1.70;99.90;;;;;;5074929;28;20821;-61
2023/01/26 10:25:00;;;;;;;63.78;27.33;;;1.70;99.90;;;;;;5072522;28;20414;-61
2023/01/26 10:27:28;;;;;;;72.32;29.25;;;1.60;99.90;;;;;;5072122;28;20435;-63
2023/01/26 10:29:56;;;;;;;67.72;28.17;;;1.60;99.90;;;;;;5075142;28;20418;-63
2023/01/26 10:32:23;;;;;;;59.90;25.58;;;1.60;99.90;;;;;;5077836;28;20414;-60
2023/01/26 10:34:52;;;;;;;62.67;24.55;;;1.60;99.90;;;;;;5076685;28;20419;-63
2023/01/26 10:37:23;;;;;;;51.05;22.42;;;1.50;99.90;;;;;;5069330;28;20484;-62
2023/01/26 10:40:02;;;;;;;47.33;22.40;;;1.40;99.90;;;;;;5081088;28;20417;-64
2023/01/26 10:42:31;;;;;;;45.17;20.92;;;1.40;99.90;;;;;;5083369;28;20497;-65
2023/01/26 10:45:01;;;;;;;45.47;20.08;;;1.20;99.90;;;;;;5080868;28;20423;-65
2023/01/26 10:47:28;;;;;;;41.63;19.40;;;1.20;99.90;;;;;;5075951;28;20518;-65
2023/01/26 10:50:15;;;;;;;45.83;21.10;;;1.20;99.90;;;;;;5069032;28;20417;-63
2023/01/26 10:52:57;;;;;;;44.22;19.00;;;1.30;99.90;;;;;;5077229;28;20434;-64
2023/01/26 10:55:24;;;;;;;42.33;18.67;;;1.30;99.90;;;;;;5076047;28;20413;-64
2023/01/26 10:57:51;;;;;;;41.15;18.92;;;1.20;99.90;;;;;;5074333;28;20427;-63
2023/01/26 11:00:28;;;;;;;41.50;19.48;;;1.30;99.90;;;;;;5072886;28;20419;-60
2023/01/26 11:03:00;;;;;;;40.05;18.67;;;1.40;99.90;;;;;;5082657;28;20833;-60
2023/01/26 11:05:27;;;;;;;40.83;18.73;;;1.30;99.90;;;;;;5078531;28;20450;-61
2023/01/26 11:07:59;;;;;;;41.88;18.67;;;1.30;99.90;;;;;;5076929;28;20448;-61
2023/01/26 11:10:31;;;;;;;45.92;20.73;;;1.30;99.90;;;;;;5083831;28;20420;-63
2023/01/26 11:13:16;;;;;;;37.15;17.45;;;1.40;99.90;;;;;;5076231;28;20483;-62
2023/01/26 11:15:47;;;;;;;36.67;17.90;;;1.60;99.90;;;;;;5068817;28;20415;-62
2023/01/26 11:18:32;;;;;;;38.30;19.02;;;1.40;99.90;;;;;;5079810;28;20494;-61
2023/01/26 11:21:03;;;;;;;38.95;19.10;;;1.60;99.90;;;;;;5077037;28;20471;-63
2023/01/26 11:23:44;;;;;;;38.28;18.45;;;1.60;99.90;;;;;;5073555;28;20902;-64
2023/01/26 11:26:31;;;;;;;42.78;20.08;;;1.70;99.90;;;;;;5079175;28;20400;-62
2023/01/26 11:29:18;;;;;;;42.15;20.33;;;1.80;99.90;;;;;;5073481;28;20431;-62
2023/01/26 11:31:56;;;;;;;41.08;19.98;;;1.90;99.90;;;;;;5079891;28;20492;-61
2023/01/26 11:34:33;;;;;;;41.08;19.60;;;2.00;99.90;;;;;;5068785;28;20492;-62
2023/01/26 11:37:15;;;;;;;41.08;20.25;;;1.80;99.90;;;;;;5076254;28;20445;-61
2023/01/26 11:39:55;;;;;;;44.53;21.65;;;1.70;99.90;;;;;;5074279;28;20886;-62
2023/01/26 11:42:32;;;;;;;43.90;20.60;;;1.40;99.90;;;;;;5080784;28;20882;-62
2023/01/26 11:45:11;;;;;;;37.38;18.30;;;1.60;99.90;;;;;;5076938;28;20401;-66
2023/01/26 11:47:58;;;;;;;37.47;18.48;;;1.80;99.90;;;;;;5081697;28;20425;-64
2023/01/26 11:50:33;;;;;;;33.30;17.40;;;1.90;99.90;;;;;;5076834;28;20422;-64
2023/01/26 11:53:31;;;;;;;34.23;17.43;;;1.90;99.90;;;;;;5072953;28;20497;-64
2023/01/26 11:56:18;;;;;;;33.40;16.40;;;1.50;99.90;;;;;;5078406;28;20418;-62
2023/01/26 11:58:50;;;;;;;34.88;16.23;;;1.50;99.90;;;;;;5074402;28;20416;-62
2023/01/26 12:01:24;;;;;;;35.78;17.60;;;1.40;99.90;;;;;;5074806;28;20411;-62
2023/01/26 12:03:52;;;;;;;33.95;17.15;;;1.40;99.90;;;;;;5075127;28;20496;-62
2023/01/26 12:06:24;;;;;;;41.28;18.20;;;1.40;99.90;;;;;;5073705;28;20435;-64
2023/01/26 12:08:54;;;;;;;40.15;19.80;;;1.30;99.90;;;;;;5079423;28;20433;-61
2023/01/26 12:11:26;;;;;;;38.15;18.25;;;1.30;99.90;;;;;;5077920;28;20430;-61
2023/01/26 12:14:11;;;;;;;32.05;16.73;;;1.40;99.90;;;;;;5077768;28;20433;-62
2023/01/26 12:16:47;;;;;;;27.73;15.60;;;1.50;99.90;;;;;;5075644;28;20415;-62
2023/01/26 12:19:28;;;;;;;29.30;15.88;;;1.70;99.90;;;;;;5076285;28;20419;-63
2023/01/26 12:22:02;;;;;;;28.85;16.27;;;1.60;99.90;;;;;;5075498;28;20415;-62
2023/01/26 12:24:36;;;;;;;29.23;16.17;;;1.50;99.90;;;;;;5076094;28;20416;-62
2023/01/26 12:27:05;;;;;;;31.30;16.35;;;1.60;99.90;;;;;;5075558;28;20902;-61
2023/01/26 12:29:38;;;;;;;26.08;14.63;;;1.70;99.90;;;;;;5075113;28;20836;-62
2023/01/26 12:32:10;;;;;;;23.58;14.13;;;1.70;99.90;;;;;;5078860;28;20487;-60
2023/01/26 12:34:38;;;;;;;27.15;15.57;;;1.50;99.90;;;;;;5076148;28;20638;-61
2023/01/26 12:37:35;;;;;;;27.67;14.95;;;1.60;99.90;;;;;;5071345;28;20427;-62
2023/01/26 12:40:12;;;;;;;26.70;14.75;;;1.40;99.90;;;;;;5076760;28;20414;-62
2023/01/26 12:42:46;;;;;;;27.08;14.02;;;1.50;99.90;;;;;;5074182;28;20414;-60
2023/01/26 12:45:18;;;;;;;25.67;14.05;;;1.70;99.90;;;;;;5073880;28;20424;-60
2023/01/26 12:47:49;;;;;;;24.58;14.07;;;1.80;99.90;;;;;;5069646;28;20417;-61
2023/01/26 12:50:25;;;;;;;24.10;14.20;;;1.70;99.90;;;;;;5073546;28;20415;-59
2023/01/26 12:52:57;;;;;;;20.50;12.52;;;1.80;99.90;;;;;;5077472;28;20420;-61
2023/01/26 12:55:27;;;;;;;22.23;12.68;;;1.90;99.90;;;;;;5072829;28;20411;-61
2023/01/26 12:57:58;;;;;;;19.70;12.52;;;2.00;99.90;;;;;;5076401;28;20495;-61
2023/01/26 13:00:28;;;;;;;19.25;11.43;;;2.00;99.90;;;;;;5078116;28;20424;-61
2023/01/26 13:02:59;;;;;;;19.92;11.88;;;2.10;99.90;;;;;;5076464;28;20443;-58
2023/01/26 13:05:30;;;;;;;18.98;12.10;;;2.20;99.90;;;;;;5076576;28;20507;-59
2023/01/26 13:07:57;;;;;;;16.63;10.85;;;2.10;99.90;;;;;;5080451;28;20421;-59
2023/01/26 13:10:29;;;;;;;20.17;11.52;;;2.10;99.90;;;;;;5077997;28;20423;-60
2023/01/26 13:12:59;;;;;;;21.20;11.68;;;1.80;99.90;;;;;;5079106;28;20442;-62
2023/01/26 13:15:28;;;;;;;20.25;12.23;;;1.90;99.90;;;;;;5070321;28;20420;-60
2023/01/26 13:17:57;;;;;;;20.52;11.50;;;1.80;99.90;;;;;;5072187;28;20441;-62
2023/01/26 13:20:48;;;;;;;18.67;11.82;;;1.50;99.90;;;;;;5082766;28;20924;-63
2023/01/26 13:23:40;;;;;;;17.25;10.70;;;1.60;99.90;;;;;;5075853;28;20473;-66
2023/01/26 13:26:14;;;;;;;17.77;10.02;;;1.70;99.90;;;;;;5077652;28;20445;-63